Harrington Cda Cs, Prince Edward Island

1:11 AM ADT on August 30, 2015 (GMT -0300)
Winsloe Road | | Change Station
CLOSE
Current Station
Personal Weather Station
Location: Winsloe South, PRINCE EDWARD ISLAND
Elevation: 200 ft
Nearby Weather Stations

Elev 200 ft 46.30 °N, 63.18 °W | Updated 58 seconds ago

Overcast
Overcast
62.9 °F
Feels Like 62.9 °F
N
0.0
Wind Variable Wind from WSW
Gusts 0.0 mph

Today is forecast to be nearly the same temperature as yesterday.

Today
High -- | Low -- °F
--% Chance of Precip.
Yesterday
High -- | Low -- °F
Precip. -- in
6:30 AM 7:55 PM
Full, 100% visible
Pressure 30.01 in
Visibility 15.0 miles
Clouds Scattered Clouds 17000 ft
Overcast 25000 ft
Dew Point 60 °F
Humidity 90%
Rainfall 0.00 in
Snow Depth Not available.
UV 0 out of 12
Pollen Not available.
Air Quality Not available.
Flu Activity Not available.
METAR CYYG 300400Z 23006KT 15SM SCT170 OVC250 18/16 A3001 RMK AC3CI5 SLP162 DENSITY ALT 400FT
Pressure 30.01 in
Visibility 15.0 miles
Clouds Scattered Clouds 17000 ft
Overcast 25000 ft
Dew Point 60 °F
Humidity 90%
Rainfall 0.00 in
Snow Depth Not available.
UV 0 out of 12
Pollen Not available.
Air Quality Not available.
Flu Activity Not available.
METAR CYYG 300400Z 23006KT 15SM SCT170 OVC250 18/16 A3001 RMK AC3CI5 SLP162 DENSITY ALT 400FT

10-Day Weather Forecast

×

Almanac

Astronomy

Aug. 30, 2015 Rise Set
Actual Time
Civil Twilight
Nautical Twilight
Astronomical Twilight
Moon
Length of Visible Light
Length of Day
Tomorrow will be .
, % of the Moon is Illuminated

Today's Extremes

Country Highs Country Lows

Community

WunderPhotos

Upload Photos

1,850,880 photos uploaded!

WunderBlogs® & News

Nearby

Air Quality

  Air Quality AQ Index Pollutant
Not available.

Snow Depth

Station Depth Elevation

Earthquake Activity

City Distance Mag. Time & Date
Minimum magnitude displayed is 2.5.

Coastal Water Temperatures

Place Temperature

Stations

Nearby Weather Stations

Station Location Temp. Windchill Dew Point Humidity Wind Precip. Elev Updated Type